Time;durP1;ratioP1;P1;durP2;ratioP2;P2;SDS_P1;SDS_P2;PMS_P1;PMS_P2;Temp;Humidity;BMP_temperature;BMP_pressure;BME280_temperature;BME280_humidity;BME280_pressure;Samples;Min_cycle;Max_cycle;Signal;HPM_P1;HPM_P2
2023/02/19 00:01:19;;;;;;;17.27;10.67;;;10.50;99.90;;;;;;4819435;29;20592;-67
2023/02/19 00:04:25;;;;;;;16.33;10.13;;;10.50;99.90;;;;;;4822235;29;20228;-67
2023/02/19 00:07:31;;;;;;;17.07;10.30;;;10.50;99.90;;;;;;4824384;29;20212;-67
2023/02/19 00:10:38;;;;;;;17.47;10.00;;;10.40;99.90;;;;;;4824286;29;20649;-67
2023/02/19 00:13:45;;;;;;;15.33;9.27;;;10.40;99.90;;;;;;4819581;29;20285;-67
2023/02/19 00:16:51;;;;;;;15.27;8.70;;;10.40;99.90;;;;;;4820227;29;20228;-67
2023/02/19 00:19:57;;;;;;;13.43;8.43;;;10.40;99.90;;;;;;4823413;29;20231;-67
2023/02/19 00:23:03;;;;;;;12.30;8.27;;;10.40;99.90;;;;;;4821295;29;20260;-66
2023/02/19 00:26:13;;;;;;;15.70;7.83;;;10.40;99.90;;;;;;4817770;29;20211;-67
2023/02/19 00:29:23;;;;;;;14.60;8.47;;;10.40;99.90;;;;;;4823191;29;20236;-67
2023/02/19 00:32:29;;;;;;;13.23;8.07;;;10.40;99.90;;;;;;4815861;29;20228;-67
2023/02/19 00:35:36;;;;;;;11.77;7.03;;;10.40;99.90;;;;;;4816024;29;20229;-67
2023/02/19 00:38:43;;;;;;;13.97;7.07;;;10.40;99.90;;;;;;4818699;29;20919;-66
2023/02/19 00:41:50;;;;;;;10.90;6.50;;;10.40;99.90;;;;;;4821219;29;20228;-67
2023/02/19 00:44:56;;;;;;;12.53;6.77;;;10.30;99.90;;;;;;4813948;29;21927;-67
2023/02/19 00:48:01;;;;;;;8.30;5.90;;;10.30;99.90;;;;;;4821205;29;20235;-67
2023/02/19 00:51:07;;;;;;;13.93;6.27;;;10.30;99.90;;;;;;4819827;29;20700;-67
2023/02/19 00:54:15;;;;;;;10.27;5.60;;;10.30;99.90;;;;;;4819209;29;20236;-67
2023/02/19 00:57:22;;;;;;;12.27;5.70;;;10.30;99.90;;;;;;4821231;29;20236;-67
2023/02/19 01:00:28;;;;;;;9.80;5.33;;;10.20;99.90;;;;;;4818529;29;20560;-67
2023/02/19 01:03:35;;;;;;;9.73;4.90;;;10.20;99.90;;;;;;4822479;29;20280;-67
2023/02/19 01:06:40;;;;;;;9.83;5.17;;;10.20;99.90;;;;;;4820725;29;20204;-67
2023/02/19 01:09:46;;;;;;;7.87;4.03;;;10.20;99.90;;;;;;4817092;29;20235;-67
2023/02/19 01:12:53;;;;;;;10.93;4.77;;;10.10;99.90;;;;;;4818901;29;20786;-67
2023/02/19 01:16:04;;;;;;;10.83;4.03;;;10.10;99.90;;;;;;4814221;29;20363;-67
2023/02/19 01:19:10;;;;;;;11.87;3.70;;;10.20;99.90;;;;;;4818076;29;20311;-67
2023/02/19 01:22:16;;;;;;;10.13;3.87;;;10.20;99.90;;;;;;4816521;29;20235;-67
2023/02/19 01:25:22;;;;;;;8.43;4.33;;;10.20;99.90;;;;;;4821647;29;20264;-67
2023/02/19 01:28:29;;;;;;;8.73;3.87;;;10.20;99.90;;;;;;4822162;29;20276;-66
2023/02/19 01:31:36;;;;;;;12.37;3.97;;;10.20;99.90;;;;;;4822451;29;20204;-67
2023/02/19 01:34:42;;;;;;;6.20;3.33;;;10.10;99.90;;;;;;4819366;29;20259;-67
2023/02/19 01:37:48;;;;;;;8.27;3.30;;;10.20;99.90;;;;;;4822504;29;20231;-64
2023/02/19 01:40:56;;;;;;;10.13;3.50;;;10.10;99.90;;;;;;4817899;29;20725;-64
2023/02/19 01:44:06;;;;;;;9.03;3.70;;;10.10;99.90;;;;;;4817047;29;20203;-64
2023/02/19 01:47:13;;;;;;;13.03;3.73;;;10.20;99.90;;;;;;4822908;29;20332;-67
2023/02/19 01:50:20;;;;;;;12.47;3.30;;;10.20;99.90;;;;;;4815426;29;20271;-67
2023/02/19 01:53:31;;;;;;;11.30;3.43;;;10.10;99.90;;;;;;4821275;29;20578;-65
2023/02/19 01:56:39;;;;;;;9.73;3.60;;;10.10;99.90;;;;;;4820276;29;20703;-64
2023/02/19 01:59:49;;;;;;;9.97;3.70;;;10.10;99.90;;;;;;4811371;29;20985;-64
2023/02/19 02:02:57;;;;;;;12.63;3.17;;;10.10;99.90;;;;;;4816286;29;20809;-67
2023/02/19 02:06:08;;;;;;;11.93;3.30;;;10.20;99.90;;;;;;4817155;29;20286;-67
2023/02/19 02:12:37;;;;;;;10.13;3.30;;;10.20;99.90;;;;;;4821018;29;20245;-64
2023/02/19 02:15:54;;;;;;;11.13;2.80;;;10.20;99.90;;;;;;4815861;29;20288;-64
2023/02/19 02:19:11;;;;;;;9.57;3.50;;;10.10;99.90;;;;;;4815924;29;20771;-64
2023/02/19 02:22:19;;;;;;;12.40;3.90;;;10.10;99.90;;;;;;4819939;29;20208;-64
2023/02/19 02:25:46;;;;;;;11.13;3.23;;;10.10;99.90;;;;;;4818299;29;20248;-67
2023/02/19 02:29:26;;;;;;;11.60;3.10;;;10.10;99.90;;;;;;4817182;29;20229;-65
2023/02/19 02:32:38;;;;;;;9.53;3.27;;;10.00;99.90;;;;;;4812958;29;20241;-64
2023/02/19 02:35:48;;;;;;;8.10;2.80;;;10.00;99.90;;;;;;4819656;29;20909;-64
2023/02/19 02:38:56;;;;;;;9.10;2.90;;;10.10;99.90;;;;;;4819581;29;20249;-67
2023/02/19 02:45:36;;;;;;;18.03;3.50;;;10.10;99.90;;;;;;4814628;29;20281;-67
2023/02/19 02:48:48;;;;;;;11.80;3.13;;;10.10;99.90;;;;;;4812569;29;20821;-67
2023/02/19 02:51:56;;;;;;;13.73;3.03;;;10.00;99.90;;;;;;4820377;29;20261;-66
2023/02/19 02:55:04;;;;;;;9.77;3.00;;;10.00;99.90;;;;;;4819941;29;20232;-67
2023/02/19 02:58:12;;;;;;;14.83;3.40;;;10.00;99.90;;;;;;4821910;29;20556;-67
2023/02/19 03:08:22;;;;;;;8.97;2.80;;;10.00;99.90;;;;;;4818112;29;20264;-65
2023/02/19 03:21:57;;;;;;;13.67;3.03;;;9.90;99.90;;;;;;4822195;29;20231;-66
2023/02/19 03:32:06;;;;;;;11.33;2.43;;;10.00;99.90;;;;;;4821803;29;20234;-66
2023/02/19 03:35:15;;;;;;;7.87;2.53;;;10.00;99.90;;;;;;4819682;29;20976;-66
2023/02/19 03:38:26;;;;;;;11.50;2.87;;;10.00;99.90;;;;;;4820502;29;20266;-66
2023/02/19 03:41:38;;;;;;;12.27;3.30;;;10.00;99.90;;;;;;4819094;29;20307;-66
2023/02/19 03:44:48;;;;;;;11.53;3.20;;;10.10;99.90;;;;;;4821177;29;20577;-66
2023/02/19 03:48:03;;;;;;;12.07;3.30;;;10.10;99.90;;;;;;4819366;29;20257;-66
2023/02/19 03:51:27;;;;;;;10.57;3.20;;;10.10;99.90;;;;;;4824559;29;20265;-66
2023/02/19 03:54:38;;;;;;;15.40;3.60;;;10.10;99.90;;;;;;4823451;29;20257;-66
2023/02/19 03:57:50;;;;;;;11.90;3.10;;;10.10;99.90;;;;;;4824653;29;20731;-65
2023/02/19 04:01:02;;;;;;;10.30;3.03;;;10.00;99.90;;;;;;4821967;29;20247;-66
2023/02/19 04:04:13;;;;;;;14.60;3.87;;;10.00;99.90;;;;;;4824068;29;20235;-66
2023/02/19 04:07:19;;;;;;;12.07;3.50;;;10.00;99.90;;;;;;4822060;29;20799;-66
2023/02/19 04:10:27;;;;;;;19.73;3.60;;;10.00;99.90;;;;;;4820256;29;20256;-66
2023/02/19 04:13:38;;;;;;;11.40;3.47;;;10.00;99.90;;;;;;4820398;29;21344;-66
2023/02/19 04:16:49;;;;;;;14.33;3.23;;;10.10;99.90;;;;;;4821946;29;20239;-66
2023/02/19 04:19:56;;;;;;;16.93;3.40;;;10.00;99.90;;;;;;4821232;29;20246;-66
2023/02/19 04:23:03;;;;;;;16.07;3.20;;;10.00;99.90;;;;;;4816382;29;20268;-66
2023/02/19 04:26:14;;;;;;;17.70;3.57;;;10.00;99.90;;;;;;4816680;29;20236;-66
2023/02/19 04:29:20;;;;;;;16.97;3.50;;;9.90;99.90;;;;;;4821984;29;20300;-65
2023/02/19 04:32:25;;;;;;;13.13;3.13;;;9.90;99.90;;;;;;4821531;29;20251;-66
2023/02/19 04:35:31;;;;;;;15.87;3.60;;;9.90;99.90;;;;;;4813442;29;20474;-66
2023/02/19 04:38:40;;;;;;;19.90;3.03;;;9.90;99.90;;;;;;4820061;29;20208;-66
2023/02/19 04:41:47;;;;;;;18.23;3.43;;;9.90;99.90;;;;;;4819852;29;20744;-66
2023/02/19 04:44:53;;;;;;;18.73;3.17;;;9.90;99.90;;;;;;4822316;29;20580;-65
2023/02/19 04:47:59;;;;;;;10.40;3.33;;;9.90;99.90;;;;;;4822262;29;20216;-65
2023/02/19 04:51:06;;;;;;;17.67;3.30;;;9.90;99.90;;;;;;4817373;29;20261;-65
2023/02/19 04:54:12;;;;;;;21.10;3.87;;;9.90;99.90;;;;;;4819861;29;20208;-66
2023/02/19 04:57:20;;;;;;;14.13;3.30;;;9.90;99.90;;;;;;4819855;29;20231;-65
2023/02/19 05:00:25;;;;;;;15.47;3.27;;;9.90;99.90;;;;;;4819782;29;20273;-65
2023/02/19 05:03:31;;;;;;;15.10;3.47;;;9.80;99.90;;;;;;4818849;29;20208;-65
2023/02/19 05:06:37;;;;;;;21.67;4.37;;;9.80;99.90;;;;;;4821490;29;20267;-66
2023/02/19 05:09:43;;;;;;;17.23;3.50;;;9.80;99.90;;;;;;4817819;29;20263;-65
2023/02/19 05:12:50;;;;;;;18.30;3.97;;;9.80;99.90;;;;;;4820144;29;20311;-66
2023/02/19 05:15:57;;;;;;;13.97;3.53;;;9.70;99.90;;;;;;4819413;29;20315;-66
2023/02/19 05:19:03;;;;;;;12.67;3.07;;;9.70;99.90;;;;;;4823266;29;20223;-66
2023/02/19 05:22:09;;;;;;;7.57;3.10;;;9.70;99.90;;;;;;4815905;29;20224;-66
2023/02/19 05:25:16;;;;;;;14.33;3.37;;;9.80;99.90;;;;;;4818865;29;20203;-66
2023/02/19 05:28:27;;;;;;;17.60;3.30;;;9.70;99.90;;;;;;4819798;29;20228;-66
2023/02/19 05:31:33;;;;;;;16.20;3.17;;;9.70;99.90;;;;;;4819275;29;20236;-66
2023/02/19 05:34:39;;;;;;;18.57;3.73;;;9.70;99.90;;;;;;4817291;29;20609;-66
2023/02/19 05:37:45;;;;;;;14.03;3.40;;;9.70;99.90;;;;;;4818987;29;20263;-66
2023/02/19 05:40:51;;;;;;;18.73;3.30;;;9.70;99.90;;;;;;4817256;29;20227;-66
2023/02/19 05:43:58;;;;;;;18.87;3.67;;;9.70;99.90;;;;;;4818827;29;20592;-66
2023/02/19 05:47:04;;;;;;;14.93;3.30;;;9.70;99.90;;;;;;4818193;29;20285;-66
2023/02/19 05:50:10;;;;;;;20.23;3.50;;;9.60;99.90;;;;;;4819431;29;20642;-66
2023/02/19 05:53:16;;;;;;;14.70;3.73;;;9.60;99.90;;;;;;4818532;29;20231;-66
2023/02/19 05:56:31;;;;;;;15.60;3.53;;;9.70;99.90;;;;;;4819789;29;20223;-66
2023/02/19 05:59:38;;;;;;;15.70;3.70;;;9.70;99.90;;;;;;4821063;29;20207;-66
2023/02/19 06:02:45;;;;;;;12.53;3.33;;;9.60;99.90;;;;;;4819223;29;20600;-66
2023/02/19 06:05:51;;;;;;;14.73;3.33;;;9.60;99.90;;;;;;4822451;29;20279;-66
2023/02/19 06:08:56;;;;;;;19.60;3.30;;;9.60;99.90;;;;;;4817125;29;20217;-65
2023/02/19 06:12:02;;;;;;;16.00;3.20;;;9.60;99.90;;;;;;4821187;29;20592;-66
2023/02/19 06:15:09;;;;;;;14.17;3.60;;;9.60;99.90;;;;;;4820531;29;20211;-65
2023/02/19 06:18:15;;;;;;;22.33;3.93;;;9.60;99.90;;;;;;4820241;29;20552;-66
2023/02/19 06:21:21;;;;;;;13.87;3.27;;;9.60;99.90;;;;;;4822739;29;20253;-65
2023/02/19 06:24:27;;;;;;;18.07;3.20;;;9.50;99.90;;;;;;4818300;29;20553;-65
2023/02/19 06:27:33;;;;;;;17.30;5.10;;;9.50;99.90;;;;;;4818183;29;20292;-66
2023/02/19 06:30:40;;;;;;;15.47;4.63;;;9.50;99.90;;;;;;4818125;29;20247;-65
2023/02/19 06:33:46;;;;;;;12.80;3.53;;;9.50;99.90;;;;;;4820483;29;20200;-66
2023/02/19 06:36:52;;;;;;;14.73;3.80;;;9.50;99.90;;;;;;4816465;29;20420;-65
2023/02/19 06:39:58;;;;;;;13.10;3.63;;;9.50;99.90;;;;;;4818198;29;20594;-65
2023/02/19 06:43:04;;;;;;;10.60;3.80;;;9.50;99.90;;;;;;4819308;29;20333;-66
2023/02/19 06:46:12;;;;;;;15.20;3.33;;;9.60;99.90;;;;;;4814393;29;20231;-66
2023/02/19 06:49:18;;;;;;;17.53;3.70;;;9.60;99.90;;;;;;4820693;29;20211;-66
2023/02/19 06:52:24;;;;;;;13.57;3.60;;;9.50;99.90;;;;;;4823778;29;20372;-66
2023/02/19 06:55:29;;;;;;;17.40;3.40;;;9.50;99.90;;;;;;4820898;29;20222;-66
2023/02/19 06:58:35;;;;;;;15.10;4.50;;;9.50;99.90;;;;;;4822636;29;20283;-66
2023/02/19 07:01:43;;;;;;;14.90;4.57;;;9.50;99.90;;;;;;4821582;29;20589;-66
2023/02/19 07:04:49;;;;;;;19.87;5.90;;;9.40;99.90;;;;;;4820535;29;20212;-66
2023/02/19 07:07:54;;;;;;;13.40;4.17;;;9.40;99.90;;;;;;4814132;29;20276;-66
2023/02/19 07:11:00;;;;;;;12.93;4.03;;;9.30;99.90;;;;;;4819668;29;20279;-66
2023/02/19 07:14:07;;;;;;;8.50;2.87;;;9.40;99.90;;;;;;4821829;29;20236;-65
2023/02/19 07:17:14;;;;;;;17.27;3.80;;;9.40;99.90;;;;;;4822891;29;20617;-65
2023/02/19 07:20:20;;;;;;;9.30;3.40;;;9.50;99.90;;;;;;4821958;29;20236;-66
2023/02/19 07:23:27;;;;;;;12.03;3.90;;;9.60;99.90;;;;;;4821127;29;20801;-66
2023/02/19 07:26:33;;;;;;;16.47;4.43;;;9.60;99.90;;;;;;4819204;29;20223;-66
2023/02/19 07:29:39;;;;;;;13.33;4.20;;;9.60;99.90;;;;;;4824325;29;20228;-66
2023/02/19 07:32:46;;;;;;;16.87;5.27;;;9.60;99.90;;;;;;4820365;29;20727;-65
2023/02/19 07:35:51;;;;;;;21.17;6.10;;;9.70;99.90;;;;;;4820650;29;20265;-65
2023/02/19 07:39:00;;;;;;;30.70;9.23;;;9.70;99.90;;;;;;4821876;29;20247;-66
2023/02/19 07:42:06;;;;;;;16.57;4.47;;;9.70;99.90;;;;;;4820088;29;20276;-65
2023/02/19 07:45:11;;;;;;;20.03;5.80;;;9.70;99.90;;;;;;4821442;29;20349;-65
2023/02/19 07:48:19;;;;;;;24.97;7.77;;;9.80;99.90;;;;;;4820476;29;20196;-65
2023/02/19 07:51:25;;;;;;;28.97;10.83;;;9.90;99.90;;;;;;4821920;29;20220;-66
2023/02/19 07:54:32;;;;;;;31.47;10.17;;;9.90;99.90;;;;;;4819353;29;20301;-66
2023/02/19 07:57:38;;;;;;;28.60;9.13;;;10.00;99.90;;;;;;4822773;29;20629;-66
2023/02/19 08:00:44;;;;;;;23.53;7.47;;;10.00;99.90;;;;;;4820576;29;20208;-66
2023/02/19 08:03:52;;;;;;;32.20;9.77;;;9.90;99.90;;;;;;4820258;29;20192;-66
2023/02/19 08:06:57;;;;;;;24.60;7.97;;;9.90;99.90;;;;;;4821609;29;20239;-65
2023/02/19 08:13:30;;;;;;;15.47;4.67;;;9.90;99.90;;;;;;4821586;29;20588;-65
2023/02/19 08:16:35;;;;;;;16.47;4.33;;;10.00;99.90;;;;;;4818759;29;20253;-66
2023/02/19 08:19:49;;;;;;;13.43;4.23;;;10.00;99.90;;;;;;4819488;29;20245;-65
2023/02/19 08:22:55;;;;;;;9.17;3.70;;;10.10;99.90;;;;;;4817086;29;20277;-65
2023/02/19 08:26:01;;;;;;;7.20;3.80;;;10.10;99.90;;;;;;4819216;29;20196;-66
2023/02/19 08:29:07;;;;;;;16.67;4.00;;;10.20;99.90;;;;;;4817053;29;20232;-66
2023/02/19 08:32:13;;;;;;;8.30;3.20;;;10.20;99.90;;;;;;4817470;29;20371;-66
2023/02/19 08:35:20;;;;;;;9.17;3.33;;;10.30;99.90;;;;;;4821683;29;20213;-66
2023/02/19 08:38:26;;;;;;;16.97;4.17;;;10.20;99.90;;;;;;4821018;29;20750;-65
2023/02/19 08:41:32;;;;;;;11.50;3.30;;;10.30;99.90;;;;;;4820424;29;20532;-66
2023/02/19 08:44:38;;;;;;;10.17;2.93;;;10.20;99.90;;;;;;4821071;29;20223;-66
2023/02/19 08:47:44;;;;;;;14.57;3.53;;;10.20;99.90;;;;;;4819976;29;20280;-66
2023/02/19 08:51:02;;;;;;;12.90;3.10;;;10.20;99.90;;;;;;4818048;29;20245;-66
2023/02/19 08:54:08;;;;;;;14.67;3.47;;;10.30;99.90;;;;;;4818727;29;20372;-66
2023/02/19 08:57:13;;;;;;;13.13;3.50;;;10.40;99.90;;;;;;4820014;29;20703;-66
2023/02/19 09:00:20;;;;;;;8.20;3.43;;;10.50;99.90;;;;;;4814681;29;20715;-66
2023/02/19 09:03:26;;;;;;;14.47;3.87;;;10.50;99.90;;;;;;4819588;29;20298;-66
2023/02/19 09:06:33;;;;;;;12.77;3.40;;;10.60;99.90;;;;;;4818364;29;20280;-66
2023/02/19 09:09:39;;;;;;;13.63;3.20;;;10.70;99.90;;;;;;4819062;29;20288;-66
2023/02/19 09:12:45;;;;;;;13.60;3.73;;;10.70;99.90;;;;;;4815858;29;20779;-66
2023/02/19 09:15:51;;;;;;;12.90;3.60;;;10.80;99.90;;;;;;4821103;29;21744;-66
2023/02/19 09:18:57;;;;;;;14.30;3.10;;;10.80;99.90;;;;;;4816658;29;20268;-66
2023/02/19 09:22:05;;;;;;;18.53;3.80;;;10.90;99.90;;;;;;4815817;29;20231;-67
2023/02/19 09:25:10;;;;;;;8.67;2.90;;;11.00;99.90;;;;;;4819192;29;20248;-66
2023/02/19 09:28:16;;;;;;;8.13;3.27;;;10.90;99.90;;;;;;4816791;29;20240;-66
2023/02/19 09:31:22;;;;;;;11.60;3.50;;;10.80;99.90;;;;;;4809908;29;20235;-66
2023/02/19 09:34:29;;;;;;;10.87;3.33;;;10.80;99.90;;;;;;4818708;29;20688;-66
2023/02/19 09:37:36;;;;;;;10.13;3.03;;;10.90;99.90;;;;;;4817936;29;20224;-66
2023/02/19 09:40:42;;;;;;;9.03;2.93;;;10.90;99.90;;;;;;4820674;29;20204;-65
2023/02/19 09:43:48;;;;;;;10.17;2.97;;;11.00;99.90;;;;;;4819101;29;20219;-66
2023/02/19 09:46:55;;;;;;;8.30;3.20;;;11.00;99.90;;;;;;4817382;29;20881;-66
2023/02/19 09:50:06;;;;;;;10.10;3.17;;;11.10;99.90;;;;;;4819819;29;20212;-66
2023/02/19 09:53:20;;;;;;;10.60;3.07;;;11.10;99.90;;;;;;4818543;29;20312;-66
2023/02/19 09:56:26;;;;;;;16.47;3.23;;;11.20;99.90;;;;;;4815547;29;20237;-66
2023/02/19 09:59:40;;;;;;;10.83;2.77;;;11.20;99.90;;;;;;4820258;29;20658;-66
2023/02/19 10:02:46;;;;;;;9.77;3.30;;;11.20;99.90;;;;;;4819671;29;20208;-66
2023/02/19 10:05:53;;;;;;;8.03;3.00;;;11.30;99.90;;;;;;4819770;29;20235;-66
2023/02/19 10:09:18;;;;;;;11.60;3.00;;;11.30;99.90;;;;;;4813220;29;20721;-66
2023/02/19 10:12:26;;;;;;;8.27;3.17;;;11.30;99.90;;;;;;4810594;29;20740;-66
2023/02/19 10:15:36;;;;;;;14.83;3.60;;;11.30;99.90;;;;;;4816895;29;20239;-66
2023/02/19 10:18:45;;;;;;;11.60;3.60;;;11.40;99.90;;;;;;4816137;29;20236;-66
2023/02/19 10:21:51;;;;;;;7.50;3.03;;;11.50;99.90;;;;;;4815792;29;20239;-66
2023/02/19 10:24:59;;;;;;;9.73;4.30;;;11.60;99.90;;;;;;4814610;29;20228;-66
2023/02/19 10:28:12;;;;;;;12.20;4.13;;;11.60;99.90;;;;;;4816788;29;20249;-66
2023/02/19 10:31:20;;;;;;;13.17;4.37;;;11.70;99.90;;;;;;4814556;29;20216;-66
2023/02/19 10:34:26;;;;;;;16.03;5.37;;;11.70;99.90;;;;;;4817336;29;20236;-66
2023/02/19 10:37:32;;;;;;;11.43;4.10;;;11.60;99.90;;;;;;4816040;29;20715;-66
2023/02/19 10:40:44;;;;;;;11.43;4.43;;;11.60;99.90;;;;;;4813848;29;20848;-66
2023/02/19 10:43:54;;;;;;;11.43;3.37;;;11.50;99.90;;;;;;4818996;29;20707;-66
2023/02/19 10:47:01;;;;;;;15.30;4.77;;;11.50;99.90;;;;;;4810779;29;20448;-66
2023/02/19 10:50:20;;;;;;;11.70;3.70;;;11.60;99.90;;;;;;4818798;29;20236;-66
2023/02/19 10:53:39;;;;;;;13.23;3.40;;;11.70;99.90;;;;;;4814974;29;20316;-66
2023/02/19 10:56:47;;;;;;;7.03;3.20;;;11.90;99.90;;;;;;4815240;29;20265;-66
2023/02/19 10:59:56;;;;;;;11.03;3.20;;;11.90;99.90;;;;;;4821256;29;20235;-66
2023/02/19 11:03:21;;;;;;;11.30;3.27;;;11.80;99.90;;;;;;4821662;29;20219;-66
2023/02/19 11:06:29;;;;;;;15.80;3.63;;;11.70;99.90;;;;;;4816402;29;20211;-66
2023/02/19 11:09:38;;;;;;;7.90;3.23;;;11.60;99.90;;;;;;4820770;29;20248;-65
2023/02/19 11:12:48;;;;;;;9.53;3.37;;;11.50;99.90;;;;;;4813229;29;20255;-66
2023/02/19 11:15:56;;;;;;;4.67;3.07;;;11.40;99.90;;;;;;4816824;29;20271;-66
2023/02/19 11:19:02;;;;;;;6.53;3.17;;;11.30;99.90;;;;;;4812941;29;20258;-66
2023/02/19 11:22:28;;;;;;;5.93;3.40;;;11.30;99.90;;;;;;4810994;29;20342;-66
2023/02/19 11:25:35;;;;;;;8.63;4.07;;;11.30;99.90;;;;;;4821273;29;20277;-66
2023/02/19 11:28:44;;;;;;;7.73;4.00;;;11.20;99.90;;;;;;4817008;29;20634;-66
2023/02/19 11:31:50;;;;;;;6.67;3.60;;;11.20;99.90;;;;;;4821638;29;20261;-66
2023/02/19 11:35:16;;;;;;;6.87;3.57;;;11.30;99.90;;;;;;4822596;29;20235;-66
2023/02/19 11:38:22;;;;;;;7.23;3.77;;;11.20;99.90;;;;;;4824430;29;20236;-66
2023/02/19 11:41:53;;;;;;;6.13;3.23;;;11.10;99.90;;;;;;4823972;29;20278;-66
2023/02/19 11:45:29;;;;;;;6.03;3.10;;;11.00;99.90;;;;;;4815265;29;20235;-66
2023/02/19 11:48:47;;;;;;;8.27;3.20;;;11.00;99.90;;;;;;4823804;29;20232;-66
2023/02/19 11:52:14;;;;;;;11.23;4.67;;;11.10;99.90;;;;;;4818343;29;20219;-66
2023/02/19 11:55:37;;;;;;;4.63;2.60;;;11.20;99.90;;;;;;4817785;29;20239;-66
2023/02/19 11:59:03;;;;;;;5.60;3.10;;;11.20;99.90;;;;;;4819267;29;20730;-66
2023/02/19 12:02:43;;;;;;;6.20;2.93;;;11.20;99.90;;;;;;4819870;29;20212;-66
2023/02/19 12:06:01;;;;;;;7.10;2.60;;;11.30;99.90;;;;;;4823149;29;20200;-66
2023/02/19 12:09:20;;;;;;;5.67;2.90;;;11.50;99.90;;;;;;4823988;29;20721;-66
2023/02/19 12:12:38;;;;;;;10.20;2.73;;;11.70;99.90;;;;;;4813869;29;20233;-66
2023/02/19 12:16:11;;;;;;;5.43;3.53;;;11.70;99.90;;;;;;4815798;29;20231;-66
2023/02/19 12:19:50;;;;;;;6.40;3.07;;;11.70;99.90;;;;;;4823761;29;20726;-66
2023/02/19 12:23:16;;;;;;;7.90;4.00;;;11.60;99.90;;;;;;4818899;29;20666;-66
2023/02/19 12:26:27;;;;;;;7.23;3.17;;;11.60;99.90;;;;;;4820183;29;20284;-66
2023/02/19 12:29:47;;;;;;;8.03;3.13;;;11.60;99.90;;;;;;4823337;29;20231;-66
2023/02/19 12:33:28;;;;;;;7.73;3.40;;;11.50;99.90;;;;;;4823778;29;20217;-66
2023/02/19 12:36:43;;;;;;;7.97;4.37;;;11.40;99.90;;;;;;4812219;29;20243;-66
2023/02/19 12:39:59;;;;;;;10.20;4.70;;;11.30;99.90;;;;;;4816496;29;20240;-66
2023/02/19 12:43:15;;;;;;;10.73;3.87;;;11.20;99.90;;;;;;4822621;29;20204;-66
2023/02/19 12:46:28;;;;;;;9.27;3.53;;;11.20;99.90;;;;;;4811889;29;20235;-66
2023/02/19 12:49:39;;;;;;;8.33;3.87;;;11.10;99.90;;;;;;4816306;29;20240;-66
2023/02/19 12:52:50;;;;;;;8.57;4.40;;;11.00;99.90;;;;;;4823287;29;20212;-66
2023/02/19 12:55:59;;;;;;;15.83;5.43;;;10.90;99.90;;;;;;4823472;29;20232;-65
2023/02/19 12:59:11;;;;;;;5.13;3.60;;;10.80;99.90;;;;;;4821804;29;20225;-65
2023/02/19 13:02:22;;;;;;;9.53;4.40;;;10.70;99.90;;;;;;4823571;29;20236;-65
2023/02/19 13:05:41;;;;;;;12.67;4.47;;;10.70;99.90;;;;;;4822636;29;20269;-65
2023/02/19 13:08:54;;;;;;;14.60;5.80;;;10.70;99.90;;;;;;4822689;29;20236;-65
2023/02/19 13:12:17;;;;;;;14.10;5.57;;;10.70;99.90;;;;;;4811706;29;20271;-65
2023/02/19 13:15:30;;;;;;;13.00;4.93;;;10.80;99.90;;;;;;4822699;29;20330;-65
2023/02/19 13:18:41;;;;;;;11.47;3.93;;;10.80;99.90;;;;;;4822199;29;20248;-65
2023/02/19 13:25:21;;;;;;;5.40;2.67;;;10.80;99.90;;;;;;4823261;29;20650;-65
2023/02/19 13:28:49;;;;;;;6.33;2.80;;;10.70;99.90;;;;;;4810682;29;20562;-65
2023/02/19 13:32:21;;;;;;;6.37;3.27;;;10.60;99.90;;;;;;4812440;29;20235;-65
2023/02/19 13:35:43;;;;;;;5.53;2.87;;;10.60;99.90;;;;;;4819761;29;20232;-66
2023/02/19 13:38:50;;;;;;;6.60;2.73;;;10.50;99.90;;;;;;4822647;29;20231;-65
2023/02/19 13:41:58;;;;;;;4.40;2.60;;;10.40;99.90;;;;;;4814930;29;20265;-65
2023/02/19 13:45:06;;;;;;;4.00;2.87;;;10.40;99.90;;;;;;4817933;29;20286;-65
2023/02/19 13:48:26;;;;;;;6.57;3.30;;;10.40;99.90;;;;;;4822678;29;20293;-66
2023/02/19 13:51:54;;;;;;;3.43;3.10;;;10.40;99.90;;;;;;4814258;29;20211;-65
2023/02/19 13:55:33;;;;;;;3.50;3.20;;;10.40;99.90;;;;;;4822049;29;20254;-66
2023/02/19 13:58:56;;;;;;;2.83;2.50;;;10.50;99.90;;;;;;4817543;29;20288;-65
2023/02/19 14:02:32;;;;;;;6.47;3.07;;;10.50;99.90;;;;;;4819242;29;20276;-65
2023/02/19 14:05:59;;;;;;;11.13;3.33;;;10.40;99.90;;;;;;4821751;29;20273;-65
2023/02/19 14:09:27;;;;;;;3.47;3.17;;;10.30;99.90;;;;;;4821563;29;20341;-65
2023/02/19 14:12:35;;;;;;;6.67;3.10;;;10.20;99.90;;;;;;4836551;29;20751;-66
2023/02/19 14:15:50;;;;;;;3.83;2.70;;;10.20;99.90;;;;;;4818930;29;20295;-65
2023/02/19 14:18:56;;;;;;;12.47;3.67;;;10.10;99.90;;;;;;4810989;29;20232;-65
2023/02/19 14:22:01;;;;;;;5.33;3.47;;;10.10;99.90;;;;;;4815134;29;20211;-65
2023/02/19 14:25:22;;;;;;;8.40;3.80;;;10.10;99.90;;;;;;4821949;29;20250;-65
2023/02/19 14:28:36;;;;;;;8.37;3.20;;;10.10;99.90;;;;;;4822242;29;20243;-65
2023/02/19 14:31:45;;;;;;;6.37;2.90;;;10.10;99.90;;;;;;4810000;29;20400;-65
2023/02/19 14:34:52;;;;;;;3.53;3.03;;;10.10;99.90;;;;;;4821537;29;20259;-65
2023/02/19 14:37:58;;;;;;;5.63;2.97;;;10.00;99.90;;;;;;4821811;29;20243;-65
2023/02/19 14:41:06;;;;;;;3.37;3.07;;;9.90;99.90;;;;;;4819385;29;20251;-65
2023/02/19 14:44:18;;;;;;;9.23;3.73;;;9.90;99.90;;;;;;4820953;29;20284;-65
2023/02/19 14:47:29;;;;;;;3.90;2.87;;;9.80;99.90;;;;;;4822041;29;20285;-65
2023/02/19 14:50:36;;;;;;;4.47;3.23;;;9.80;99.90;;;;;;4817686;29;20212;-65
2023/02/19 14:53:44;;;;;;;6.60;3.10;;;9.70;99.90;;;;;;4815749;29;20215;-65
2023/02/19 14:56:52;;;;;;;4.20;3.37;;;9.70;99.90;;;;;;4814671;29;20224;-65
2023/02/19 15:00:00;;;;;;;4.67;3.70;;;9.60;99.90;;;;;;4813029;29;20212;-66
2023/02/19 15:03:25;;;;;;;6.20;3.50;;;9.60;99.90;;;;;;4812543;29;20252;-65
2023/02/19 15:06:34;;;;;;;7.00;3.70;;;9.60;99.90;;;;;;4821231;29;20589;-65
2023/02/19 15:09:43;;;;;;;9.77;3.63;;;9.60;99.90;;;;;;4813459;29;20292;-65
2023/02/19 15:12:52;;;;;;;4.97;3.57;;;9.60;99.90;;;;;;4814850;29;20317;-65
2023/02/19 15:15:58;;;;;;;5.33;3.60;;;9.70;99.90;;;;;;4820282;29;20227;-65
2023/02/19 15:19:09;;;;;;;5.30;3.50;;;9.70;99.90;;;;;;4825161;29;20224;-65
2023/02/19 15:22:20;;;;;;;4.83;3.47;;;9.80;99.90;;;;;;4824673;29;20641;-66
2023/02/19 15:25:32;;;;;;;5.13;3.93;;;9.80;99.90;;;;;;4816271;29;20630;-65
2023/02/19 15:28:37;;;;;;;6.60;3.80;;;9.80;99.90;;;;;;4824687;29;20240;-65
2023/02/19 15:31:47;;;;;;;4.03;3.60;;;9.80;99.90;;;;;;4825178;29;20844;-65
2023/02/19 15:34:56;;;;;;;6.93;3.83;;;9.70;99.90;;;;;;4824665;29;20300;-66
2023/02/19 15:38:02;;;;;;;5.50;3.80;;;9.70;99.90;;;;;;4824270;29;20271;-65
2023/02/19 15:41:19;;;;;;;7.23;4.00;;;9.60;99.90;;;;;;4822677;29;20235;-65
2023/02/19 15:44:36;;;;;;;9.70;4.40;;;9.60;99.90;;;;;;4823965;29;20330;-65
2023/02/19 15:47:48;;;;;;;4.13;3.60;;;9.50;99.90;;;;;;4824720;29;20236;-65
2023/02/19 15:51:03;;;;;;;7.07;4.07;;;9.50;99.90;;;;;;4822883;29;20723;-65
2023/02/19 15:54:21;;;;;;;6.97;4.20;;;9.50;99.90;;;;;;4823516;29;20212;-65
2023/02/19 15:57:40;;;;;;;6.80;4.10;;;9.50;99.90;;;;;;4824626;29;20232;-65
2023/02/19 16:00:49;;;;;;;7.47;4.47;;;9.40;99.90;;;;;;4823392;29;20674;-65
2023/02/19 16:03:55;;;;;;;6.90;4.17;;;9.40;99.90;;;;;;4824729;29;20270;-65
2023/02/19 16:07:03;;;;;;;9.17;4.30;;;9.40;99.90;;;;;;4823206;29;20868;-65
2023/02/19 16:10:20;;;;;;;14.77;4.40;;;9.40;99.90;;;;;;4819769;29;20275;-65
2023/02/19 16:13:28;;;;;;;8.77;4.70;;;9.40;99.90;;;;;;4820615;29;20257;-66
2023/02/19 16:16:36;;;;;;;8.73;4.63;;;9.40;99.90;;;;;;4823223;29;20716;-65
2023/02/19 16:19:46;;;;;;;7.50;4.37;;;9.40;99.90;;;;;;4824152;29;20541;-66
2023/02/19 16:22:58;;;;;;;5.20;4.40;;;9.40;99.90;;;;;;4823035;29;20257;-66
2023/02/19 16:26:05;;;;;;;8.97;4.70;;;9.40;99.90;;;;;;4823758;29;20268;-66
2023/02/19 16:29:19;;;;;;;4.90;4.03;;;9.30;99.90;;;;;;4824028;29;20235;-65
2023/02/19 16:32:25;;;;;;;7.77;3.97;;;9.40;99.90;;;;;;4823721;29;20640;-65
2023/02/19 16:35:39;;;;;;;6.13;3.90;;;9.30;99.90;;;;;;4815992;29;20223;-65
2023/02/19 16:39:12;;;;;;;8.20;4.67;;;9.30;99.90;;;;;;4822924;29;20802;-65
2023/02/19 16:42:19;;;;;;;6.10;4.50;;;9.30;99.90;;;;;;4818768;29;20257;-66
2023/02/19 16:45:25;;;;;;;5.03;3.80;;;9.20;99.90;;;;;;4821682;29;20560;-66
2023/02/19 16:48:32;;;;;;;6.13;4.00;;;9.20;99.90;;;;;;4816137;29;20257;-65
2023/02/19 16:51:38;;;;;;;9.27;4.97;;;9.10;99.90;;;;;;4814814;29;20633;-65
2023/02/19 16:54:48;;;;;;;10.83;5.03;;;9.10;99.90;;;;;;4822838;29;20233;-65
2023/02/19 16:57:54;;;;;;;9.13;4.83;;;9.10;99.90;;;;;;4818690;29;20253;-66
2023/02/19 17:01:00;;;;;;;7.83;4.93;;;9.00;99.90;;;;;;4822918;29;20626;-66
2023/02/19 17:04:09;;;;;;;4.93;4.40;;;9.00;99.90;;;;;;4823423;29;20236;-66
2023/02/19 17:07:17;;;;;;;7.03;4.60;;;9.00;99.90;;;;;;4823048;29;20239;-65